Time;durP1;ratioP1;P1;durP2;ratioP2;P2;SDS_P1;SDS_P2;PMS_P1;PMS_P2;Temp;Humidity;BMP_temperature;BMP_pressure;BME280_temperature;BME280_humidity;BME280_pressure;Samples;Min_cycle;Max_cycle;Signal;HPM_P1;HPM_P2
2022/07/28 13:58:48;;;;;;;8.65;3.72;;;;;;;;;;5187281;24;20054;-60
2022/07/28 14:01:14;;;;;;;8.57;4.10;;;;;;;;;;4824252;29;20031;-60
2022/07/28 14:03:40;;;;;;;9.95;4.20;;;;;;;;;;4824144;29;20045;-60
2022/07/28 14:06:06;;;;;;;10.85;3.85;;;;;;;;;;4823831;29;20498;-60
2022/07/28 14:08:32;;;;;;;11.63;4.47;;;;;;;;;;4823836;29;20061;-60
2022/07/28 14:11:00;;;;;;;8.52;4.20;;;;;;;;;;4823957;29;20448;-60
2022/07/28 14:13:27;;;;;;;10.32;3.78;;;;;;;;;;4823566;29;20069;-60
2022/07/28 14:15:53;;;;;;;9.32;4.22;;;;;;;;;;4823194;29;20177;-60
2022/07/28 14:18:19;;;;;;;8.07;4.20;;;;;;;;;;4823639;29;20027;-59
2022/07/28 14:20:45;;;;;;;7.65;4.50;;;;;;;;;;4823877;29;20495;-58
2022/07/28 14:23:11;;;;;;;9.63;4.32;;;;;;;;;;4823630;29;20495;-60
2022/07/28 14:25:37;;;;;;;8.80;4.45;;;;;;;;;;4823933;29;20031;-60
2022/07/28 14:28:03;;;;;;;8.30;4.35;;;;;;;;;;4823442;29;20478;-60
2022/07/28 14:30:29;;;;;;;6.85;4.30;;;;;;;;;;4823583;29;20061;-60
2022/07/28 14:32:56;;;;;;;8.40;4.30;;;;;;;;;;4823579;29;20397;-60
2022/07/28 14:35:22;;;;;;;7.40;4.05;;;;;;;;;;4823827;29;20106;-60
2022/07/28 14:37:48;;;;;;;6.75;3.95;;;;;;;;;;4823745;29;20054;-60
2022/07/28 14:40:16;;;;;;;9.48;4.10;;;;;;;;;;4823692;29;20038;-60
2022/07/28 14:42:42;;;;;;;7.38;4.07;;;;;;;;;;4823522;29;20081;-60
2022/07/28 14:45:11;;;;;;;6.93;4.20;;;;;;;;;;4822839;29;20033;-62
2022/07/28 14:47:37;;;;;;;10.25;4.80;;;;;;;;;;4823500;29;20479;-60
2022/07/28 14:50:04;;;;;;;10.27;4.90;;;;;;;;;;4823402;29;20030;-60
2022/07/28 14:52:30;;;;;;;7.10;4.63;;;;;;;;;;4823592;29;20042;-65
2022/07/28 14:54:56;;;;;;;6.72;4.45;;;;;;;;;;4823103;29;20089;-61
2022/07/28 14:57:23;;;;;;;6.00;4.22;;;;;;;;;;4822945;29;20431;-60
2022/07/28 14:59:49;;;;;;;9.25;4.47;;;;;;;;;;4834759;29;20062;-61
2022/07/28 15:02:15;;;;;;;10.52;4.20;;;;;;;;;;4841374;29;20112;-62
2022/07/28 15:04:41;;;;;;;10.27;4.43;;;;;;;;;;4840947;29;20033;-61
2022/07/28 15:07:07;;;;;;;9.75;4.13;;;;;;;;;;4840990;29;20490;-61
2022/07/28 15:09:33;;;;;;;9.05;4.25;;;;;;;;;;4841337;29;20036;-60
2022/07/28 15:12:00;;;;;;;7.03;4.20;;;;;;;;;;4841094;29;20033;-61
2022/07/28 15:14:26;;;;;;;9.90;4.18;;;;;;;;;;4841347;29;20530;-61
2022/07/28 15:16:52;;;;;;;8.25;4.30;;;;;;;;;;4841074;29;20574;-61
2022/07/28 15:19:18;;;;;;;7.53;4.32;;;;;;;;;;4841016;29;20553;-61
2022/07/28 15:21:46;;;;;;;7.13;4.40;;;;;;;;;;4841076;29;20486;-60
2022/07/28 15:24:12;;;;;;;8.75;4.40;;;;;;;;;;4841317;29;20501;-60
2022/07/28 15:26:38;;;;;;;7.35;4.60;;;;;;;;;;4840255;29;20026;-63
2022/07/28 15:29:04;;;;;;;9.00;4.13;;;;;;;;;;4840709;29;20041;-61
2022/07/28 15:31:31;;;;;;;8.40;4.45;;;;;;;;;;4841080;29;20033;-61
2022/07/28 15:33:57;;;;;;;8.45;4.38;;;;;;;;;;4830547;29;20042;-62
2022/07/28 15:36:24;;;;;;;7.88;4.40;;;;;;;;;;4828056;29;20041;-62
2022/07/28 15:38:50;;;;;;;8.10;4.18;;;;;;;;;;4822818;29;20114;-63
2022/07/28 15:41:17;;;;;;;9.43;4.60;;;;;;;;;;4822597;29;20076;-60
2022/07/28 15:43:43;;;;;;;9.85;4.72;;;;;;;;;;4822611;29;20034;-62
2022/07/28 15:46:10;;;;;;;8.88;4.72;;;;;;;;;;4822733;29;20391;-61
2022/07/28 15:48:37;;;;;;;8.38;4.20;;;;;;;;;;4828231;29;20026;-62
2022/07/28 15:51:03;;;;;;;8.07;4.28;;;;;;;;;;4836703;29;20509;-61
2022/07/28 15:53:29;;;;;;;9.77;4.10;;;;;;;;;;4840599;29;20068;-60
2022/07/28 15:55:55;;;;;;;7.50;3.95;;;;;;;;;;4840733;29;20463;-60
2022/07/28 15:58:21;;;;;;;8.52;3.95;;;;;;;;;;4828213;29;20078;-62
2022/07/28 16:00:50;;;;;;;7.82;3.97;;;;;;;;;;4822661;29;20109;-62
2022/07/28 16:03:16;;;;;;;8.25;3.92;;;;;;;;;;4822417;29;20034;-60
2022/07/28 16:05:47;;;;;;;9.88;3.97;;;;;;;;;;4822462;29;20066;-62
2022/07/28 16:08:13;;;;;;;8.98;4.50;;;;;;;;;;4822438;29;20509;-60
2022/07/28 16:10:39;;;;;;;7.03;3.92;;;;;;;;;;4822321;29;20042;-59
2022/07/28 16:13:05;;;;;;;8.15;4.07;;;;;;;;;;4821938;29;20033;-58
2022/07/28 16:15:31;;;;;;;6.63;3.67;;;;;;;;;;4822445;29;20464;-58
2022/07/28 16:17:57;;;;;;;7.13;4.10;;;;;;;;;;4822386;29;20080;-58
2022/07/28 16:20:23;;;;;;;6.35;3.80;;;;;;;;;;4822527;29;20065;-57
2022/07/28 16:22:50;;;;;;;8.02;4.65;;;;;;;;;;4822256;29;20030;-57
2022/07/28 16:25:19;;;;;;;8.02;4.03;;;;;;;;;;4822203;29;20399;-57
2022/07/28 16:27:45;;;;;;;9.05;4.07;;;;;;;;;;4821774;29;20026;-57
2022/07/28 16:30:12;;;;;;;8.35;4.35;;;;;;;;;;4821953;29;20038;-57
2022/07/28 16:32:38;;;;;;;10.52;4.35;;;;;;;;;;4821984;29;20494;-59
2022/07/28 16:35:05;;;;;;;12.88;4.80;;;;;;;;;;4821813;29;20038;-58
2022/07/28 16:37:31;;;;;;;9.55;4.22;;;;;;;;;;4821893;29;20034;-57
2022/07/28 16:39:57;;;;;;;7.68;3.80;;;;;;;;;;4825032;29;20169;-57
2022/07/28 16:42:23;;;;;;;7.10;4.28;;;;;;;;;;4824984;29;20082;-58
2022/07/28 16:44:49;;;;;;;6.25;3.70;;;;;;;;;;4825185;29;20083;-58
2022/07/28 16:47:16;;;;;;;6.30;3.47;;;;;;;;;;4824762;29;20037;-57
2022/07/28 16:49:42;;;;;;;7.65;4.55;;;;;;;;;;4825493;29;20196;-58
2022/07/28 16:52:08;;;;;;;8.60;3.85;;;;;;;;;;4824935;29;20027;-60
2022/07/28 16:54:34;;;;;;;8.50;4.20;;;;;;;;;;4825097;29;20093;-61
2022/07/28 16:57:00;;;;;;;8.98;3.63;;;;;;;;;;4824700;29;20387;-61
2022/07/28 16:59:26;;;;;;;7.47;4.03;;;;;;;;;;4824564;29;20408;-57
2022/07/28 17:01:53;;;;;;;6.38;3.88;;;;;;;;;;4825045;29;20097;-57
2022/07/28 17:04:19;;;;;;;11.75;4.00;;;;;;;;;;4824956;29;20034;-57
2022/07/28 17:06:46;;;;;;;8.18;3.80;;;;;;;;;;4825087;29;20030;-60
2022/07/28 17:09:12;;;;;;;10.95;4.10;;;;;;;;;;4824927;29;20034;-60
2022/07/28 17:11:40;;;;;;;9.25;3.88;;;;;;;;;;4824850;29;20089;-61
2022/07/28 17:14:06;;;;;;;11.43;4.45;;;;;;;;;;4824647;29;20042;-57
2022/07/28 17:16:32;;;;;;;8.90;3.70;;;;;;;;;;4824659;29;20028;-62
2022/07/28 17:18:58;;;;;;;8.93;4.07;;;;;;;;;;4824720;29;20125;-58
2022/07/28 17:21:24;;;;;;;9.68;3.90;;;;;;;;;;4824650;29;20035;-56
2022/07/28 17:23:51;;;;;;;8.38;3.90;;;;;;;;;;4824703;29;20479;-58
2022/07/28 17:26:17;;;;;;;8.63;4.32;;;;;;;;;;4824325;29;20034;-59
2022/07/28 17:28:43;;;;;;;9.55;4.30;;;;;;;;;;4824154;29;20035;-58
2022/07/28 17:31:09;;;;;;;10.63;4.70;;;;;;;;;;4824444;29;20022;-58
2022/07/28 17:33:36;;;;;;;7.43;4.13;;;;;;;;;;4824477;29;20038;-57
2022/07/28 17:36:02;;;;;;;8.90;4.03;;;;;;;;;;4824552;29;20045;-57
2022/07/28 17:38:28;;;;;;;8.00;4.28;;;;;;;;;;4824383;29;20403;-61
2022/07/28 17:40:57;;;;;;;6.07;3.75;;;;;;;;;;4824405;29;20030;-59
2022/07/28 17:43:23;;;;;;;7.03;4.07;;;;;;;;;;4823969;29;20050;-62
2022/07/28 17:45:50;;;;;;;9.13;3.90;;;;;;;;;;4824004;29;20034;-59
2022/07/28 17:48:16;;;;;;;9.27;3.72;;;;;;;;;;4824759;29;20391;-58
2022/07/28 17:50:43;;;;;;;10.77;3.78;;;;;;;;;;4823384;29;20407;-61
2022/07/28 17:53:10;;;;;;;8.73;4.10;;;;;;;;;;4824276;29;20387;-58
2022/07/28 17:55:36;;;;;;;7.85;3.95;;;;;;;;;;4807920;29;20498;-58
2022/07/28 17:58:23;;;;;;;7.57;3.80;;;;;;;;;;4824105;29;20050;-57
2022/07/28 18:00:52;;;;;;;6.35;3.88;;;;;;;;;;4823920;29;20057;-58
2022/07/28 18:03:19;;;;;;;10.00;4.22;;;;;;;;;;4823936;29;20551;-57
2022/07/28 18:05:45;;;;;;;10.10;5.00;;;;;;;;;;4824008;29;20030;-61
2022/07/28 18:08:12;;;;;;;8.30;4.28;;;;;;;;;;4823876;29;20038;-58
2022/07/28 18:10:39;;;;;;;8.88;4.28;;;;;;;;;;4823617;29;20033;-58
2022/07/28 18:13:05;;;;;;;12.98;5.35;;;;;;;;;;4823169;29;20115;-58
2022/07/28 18:15:33;;;;;;;11.40;5.00;;;;;;;;;;4823325;29;20037;-62
2022/07/28 18:17:59;;;;;;;10.35;4.70;;;;;;;;;;4823937;29;20470;-60
2022/07/28 18:20:25;;;;;;;10.77;5.80;;;;;;;;;;4823823;29;20053;-57
2022/07/28 18:22:52;;;;;;;11.30;5.88;;;;;;;;;;4823634;29;20029;-57
2022/07/28 18:25:18;;;;;;;11.70;6.28;;;;;;;;;;4823825;29;20038;-61
2022/07/28 18:27:46;;;;;;;11.00;6.32;;;;;;;;;;4823366;29;20038;-61
2022/07/28 18:30:13;;;;;;;13.35;6.32;;;;;;;;;;4823621;29;20141;-61
2022/07/28 18:32:39;;;;;;;10.68;5.63;;;;;;;;;;4823717;29;20039;-61
2022/07/28 18:35:05;;;;;;;11.43;6.05;;;;;;;;;;4823231;29;20053;-62
2022/07/28 18:37:31;;;;;;;11.90;6.10;;;;;;;;;;4823434;29;20454;-58
2022/07/28 18:39:57;;;;;;;9.82;5.60;;;;;;;;;;4823527;29;20398;-60
2022/07/28 18:42:23;;;;;;;8.35;5.30;;;;;;;;;;4823070;29;20032;-59
2022/07/28 18:44:49;;;;;;;10.65;4.88;;;;;;;;;;4822851;29;20109;-57
2022/07/28 18:47:15;;;;;;;10.00;5.40;;;;;;;;;;4823233;29;20460;-59
2022/07/28 18:49:41;;;;;;;13.30;5.30;;;;;;;;;;4823413;29;20026;-62
2022/07/28 18:52:07;;;;;;;10.93;4.80;;;;;;;;;;4823279;29;20095;-57
2022/07/28 18:54:33;;;;;;;15.48;5.70;;;;;;;;;;4823335;29;20053;-61
2022/07/28 18:56:59;;;;;;;24.10;6.78;;;;;;;;;;4823001;29;20460;-60
2022/07/28 18:59:25;;;;;;;16.98;7.70;;;;;;;;;;4822985;29;20051;-61
2022/07/28 19:01:51;;;;;;;16.95;7.13;;;;;;;;;;4822962;29;20057;-62
2022/07/28 19:04:19;;;;;;;20.40;6.57;;;;;;;;;;4823257;29;20097;-57
2022/07/28 19:06:45;;;;;;;20.67;7.43;;;;;;;;;;4823064;29;20536;-60
2022/07/28 19:09:11;;;;;;;16.25;7.63;;;;;;;;;;4822817;29;20217;-57
2022/07/28 19:11:37;;;;;;;16.75;7.75;;;;;;;;;;4822929;29;20500;-61
2022/07/28 19:14:03;;;;;;;18.73;7.80;;;;;;;;;;4822655;29;20502;-62
2022/07/28 19:16:29;;;;;;;19.50;7.50;;;;;;;;;;4822554;29;20546;-58
2022/07/28 19:18:55;;;;;;;21.63;8.20;;;;;;;;;;4822895;29;20400;-60
2022/07/28 19:21:21;;;;;;;15.52;7.63;;;;;;;;;;4823122;29;20034;-57
2022/07/28 19:23:47;;;;;;;16.15;7.68;;;;;;;;;;4822752;29;20066;-56
2022/07/28 19:26:14;;;;;;;13.55;7.57;;;;;;;;;;4822838;29;20105;-56
2022/07/28 19:28:41;;;;;;;15.50;7.45;;;;;;;;;;4822447;29;20054;-61
2022/07/28 19:31:07;;;;;;;12.52;8.00;;;;;;;;;;4822628;29;20084;-57
2022/07/28 19:33:33;;;;;;;14.35;7.47;;;;;;;;;;4822706;29;20034;-59
2022/07/28 19:35:59;;;;;;;13.27;6.97;;;;;;;;;;4822892;29;20026;-62
2022/07/28 19:38:25;;;;;;;14.20;7.05;;;;;;;;;;4822732;29;20490;-60
2022/07/28 19:40:51;;;;;;;11.90;6.88;;;;;;;;;;4822789;29;20045;-55
2022/07/28 19:43:17;;;;;;;12.00;7.03;;;;;;;;;;4838943;29;20037;-60
2022/07/28 19:45:43;;;;;;;12.07;7.50;;;;;;;;;;4840398;29;20053;-59
2022/07/28 19:48:09;;;;;;;9.73;6.80;;;;;;;;;;4828606;29;20033;-60
2022/07/28 19:50:36;;;;;;;12.30;6.97;;;;;;;;;;4840015;29;20050;-57
2022/07/28 19:53:02;;;;;;;10.05;5.90;;;;;;;;;;4840504;29;20041;-61
2022/07/28 19:55:32;;;;;;;16.17;5.90;;;;;;;;;;4840531;29;20113;-58
2022/07/28 19:57:58;;;;;;;12.35;6.65;;;;;;;;;;4840335;29;20041;-60
2022/07/28 20:00:24;;;;;;;18.20;6.38;;;;;;;;;;4840012;29;20054;-60
2022/07/28 20:02:50;;;;;;;20.20;10.38;;;;;;;;;;4840709;29;20030;-58
2022/07/28 20:05:16;;;;;;;15.82;9.88;;;;;;;;;;4840293;29;20451;-58
2022/07/28 20:07:44;;;;;;;10.95;6.60;;;;;;;;;;4840386;29;20539;-57
2022/07/28 20:10:10;;;;;;;8.55;5.80;;;;;;;;;;4840391;29;20022;-57
2022/07/28 20:12:36;;;;;;;11.85;5.88;;;;;;;;;;4840024;29;20044;-58
2022/07/28 20:15:05;;;;;;;14.95;6.25;;;;;;;;;;4844047;29;20046;-61
2022/07/28 20:17:31;;;;;;;11.82;5.45;;;;;;;;;;4844199;29;20026;-57
2022/07/28 20:19:57;;;;;;;29.02;6.63;;;;;;;;;;4844279;29;20034;-57
2022/07/28 20:22:24;;;;;;;16.23;5.65;;;;;;;;;;4844524;29;20030;-58
2022/07/28 20:24:50;;;;;;;11.23;5.90;;;;;;;;;;4844106;29;20033;-56
2022/07/28 20:27:16;;;;;;;11.02;5.78;;;;;;;;;;4843838;29;20060;-63
2022/07/28 20:29:43;;;;;;;12.10;5.30;;;;;;;;;;4843918;29;20049;-57
2022/07/28 20:32:09;;;;;;;12.80;5.53;;;;;;;;;;4843776;29;20026;-61
2022/07/28 20:34:35;;;;;;;13.20;5.78;;;;;;;;;;4843780;29;20040;-57
2022/07/28 20:37:01;;;;;;;16.90;6.05;;;;;;;;;;4843682;29;20450;-57
2022/07/28 20:39:27;;;;;;;11.30;5.43;;;;;;;;;;4843642;29;20399;-60
2022/07/28 20:41:53;;;;;;;11.30;5.60;;;;;;;;;;4843768;29;20086;-58
2022/07/28 20:44:19;;;;;;;12.07;5.47;;;;;;;;;;4843678;29;20029;-61
2022/07/28 20:46:46;;;;;;;9.27;5.43;;;;;;;;;;4843664;29;20026;-62
2022/07/28 20:49:12;;;;;;;13.30;5.47;;;;;;;;;;4843750;29;20030;-58
2022/07/28 20:51:38;;;;;;;9.10;5.95;;;;;;;;;;4843677;29;20060;-58
2022/07/28 20:54:04;;;;;;;17.13;5.70;;;;;;;;;;4843589;29;20041;-56
2022/07/28 20:56:30;;;;;;;9.60;5.50;;;;;;;;;;4843432;29;20026;-58
2022/07/28 20:58:56;;;;;;;7.88;5.30;;;;;;;;;;4825882;29;20415;-60
2022/07/28 21:01:24;;;;;;;11.77;5.78;;;;;;;;;;4843174;29;20051;-58
2022/07/28 21:03:50;;;;;;;10.95;5.80;;;;;;;;;;4839943;29;20035;-56
2022/07/28 21:06:16;;;;;;;10.65;5.82;;;;;;;;;;4842829;29;20038;-60
2022/07/28 21:08:43;;;;;;;12.18;6.10;;;;;;;;;;4842774;29;20041;-57
2022/07/28 21:11:09;;;;;;;10.90;5.70;;;;;;;;;;4839590;29;20041;-57
2022/07/28 21:13:35;;;;;;;13.20;6.18;;;;;;;;;;4842761;29;20094;-55
2022/07/28 21:16:01;;;;;;;11.98;5.63;;;;;;;;;;4843057;29;20038;-59
2022/07/28 21:18:27;;;;;;;10.32;5.88;;;;;;;;;;4842790;29;20036;-57
2022/07/28 21:20:54;;;;;;;11.00;6.00;;;;;;;;;;4843211;29;20034;-56
2022/07/28 21:23:20;;;;;;;10.93;6.38;;;;;;;;;;4818540;29;20780;-56
2022/07/28 21:25:47;;;;;;;10.73;6.60;;;;;;;;;;4824879;29;20042;-57
2022/07/28 21:30:58;;;;;;;13.35;7.13;;;;;;;;;;4842531;29;20037;-56
2022/07/28 21:33:24;;;;;;;11.60;6.78;;;;;;;;;;4842611;29;20034;-57
2022/07/28 21:35:50;;;;;;;11.13;6.53;;;;;;;;;;4842677;29;20045;-56
2022/07/28 21:38:16;;;;;;;15.15;6.88;;;;;;;;;;4842514;29;20071;-60
2022/07/28 21:40:42;;;;;;;7.88;6.15;;;;;;;;;;4839713;29;20038;-55
2022/07/28 21:43:08;;;;;;;11.48;6.25;;;;;;;;;;4830261;29;20030;-57
2022/07/28 21:45:34;;;;;;;11.63;6.47;;;;;;;;;;4838084;29;20109;-57
2022/07/28 21:48:00;;;;;;;8.90;6.13;;;;;;;;;;4826318;29;20055;-59
2022/07/28 21:50:27;;;;;;;11.38;6.68;;;;;;;;;;4842158;29;20038;-59
2022/07/28 21:52:53;;;;;;;11.05;6.57;;;;;;;;;;4837782;29;20425;-58
2022/07/28 21:55:19;;;;;;;9.52;6.55;;;;;;;;;;4823110;29;20038;-59
2022/07/28 21:57:45;;;;;;;10.75;7.35;;;;;;;;;;4822672;29;20486;-57
2022/07/28 22:00:12;;;;;;;10.85;6.32;;;;;;;;;;4821686;29;20056;-58
2022/07/28 22:02:38;;;;;;;12.05;6.43;;;;;;;;;;4822785;29;20816;-59
2022/07/28 22:05:04;;;;;;;15.00;7.25;;;;;;;;;;4822639;29;20033;-60
2022/07/28 22:07:30;;;;;;;14.38;7.55;;;;;;;;;;4822561;29;20547;-59
2022/07/28 22:09:56;;;;;;;15.80;7.15;;;;;;;;;;4823058;29;20045;-59
2022/07/28 22:12:22;;;;;;;10.70;6.97;;;;;;;;;;4822535;29;20077;-58
2022/07/28 22:14:48;;;;;;;12.80;7.60;;;;;;;;;;4805470;29;20441;-59
2022/07/28 22:17:14;;;;;;;15.50;6.63;;;;;;;;;;4821109;29;20749;-59
2022/07/28 22:19:41;;;;;;;11.68;6.28;;;;;;;;;;4821988;29;20055;-58
2022/07/28 22:22:07;;;;;;;15.18;6.85;;;;;;;;;;4822131;29;20105;-59
2022/07/28 22:24:33;;;;;;;14.20;6.88;;;;;;;;;;4821253;29;20045;-59
2022/07/28 22:26:59;;;;;;;13.20;7.97;;;;;;;;;;4821590;29;20034;-59
2022/07/28 22:29:25;;;;;;;15.60;7.50;;;;;;;;;;4804963;29;20046;-59
2022/07/28 22:31:51;;;;;;;11.73;8.15;;;;;;;;;;4822506;29;20030;-60
2022/07/28 22:34:17;;;;;;;13.38;8.50;;;;;;;;;;4822291;29;20100;-59
2022/07/28 22:36:43;;;;;;;13.93;7.43;;;;;;;;;;4821492;29;20045;-59
2022/07/28 22:42:03;;;;;;;14.10;7.55;;;;;;;;;;4822249;29;20121;-57
2022/07/28 22:44:42;;;;;;;14.18;8.07;;;;;;;;;;4821412;29;20445;-57
2022/07/28 22:47:08;;;;;;;15.40;7.57;;;;;;;;;;4821555;29;20065;-59
2022/07/28 22:49:34;;;;;;;10.77;6.40;;;;;;;;;;4821563;29;20042;-61
2022/07/28 22:52:00;;;;;;;11.48;7.03;;;;;;;;;;4821689;29;20066;-60
2022/07/28 22:54:26;;;;;;;9.25;6.38;;;;;;;;;;4821167;29;20043;-60
2022/07/28 22:59:43;;;;;;;11.88;7.10;;;;;;;;;;4822922;29;20078;-58
2022/07/28 23:02:09;;;;;;;11.82;7.13;;;;;;;;;;4821609;29;20038;-58
2022/07/28 23:04:57;;;;;;;10.15;7.10;;;;;;;;;;4821462;29;20038;-58
2022/07/28 23:07:45;;;;;;;11.05;7.38;;;;;;;;;;4821816;29;20473;-58
2022/07/28 23:10:16;;;;;;;12.70;8.40;;;;;;;;;;4825177;29;20038;-59
2022/07/28 23:12:42;;;;;;;19.00;9.18;;;;;;;;;;4821588;29;20034;-58
2022/07/28 23:17:56;;;;;;;15.68;9.95;;;;;;;;;;4821438;29;20064;-59
2022/07/28 23:23:14;;;;;;;16.30;10.70;;;;;;;;;;4807852;29;20121;-57
2022/07/28 23:25:41;;;;;;;15.63;8.57;;;;;;;;;;4824533;29;20456;-58
2022/07/28 23:28:07;;;;;;;13.55;8.05;;;;;;;;;;4821830;29;20034;-58
2022/07/28 23:33:21;;;;;;;14.00;7.80;;;;;;;;;;5092041;24;20539;-56
2022/07/28 23:35:47;;;;;;;13.75;8.63;;;;;;;;;;4803969;29;20050;-58
2022/07/28 23:38:13;;;;;;;12.23;8.07;;;;;;;;;;4804699;29;20434;-54
2022/07/28 23:40:39;;;;;;;11.23;8.85;;;;;;;;;;4804715;29;20039;-55
2022/07/28 23:43:14;;;;;;;11.55;8.10;;;;;;;;;;4803912;29;20499;-54
2022/07/28 23:45:40;;;;;;;12.20;7.55;;;;;;;;;;4804226;29;20043;-55
2022/07/28 23:48:06;;;;;;;12.23;7.65;;;;;;;;;;4803525;29;20039;-59
2022/07/28 23:50:33;;;;;;;21.58;8.45;;;;;;;;;;4804322;29;20038;-54
2022/07/28 23:52:59;;;;;;;16.27;8.07;;;;;;;;;;4804285;29;20031;-54
2022/07/28 23:55:25;;;;;;;16.58;7.45;;;;;;;;;;4804640;29;20039;-55
2022/07/28 23:57:51;;;;;;;12.80;7.45;;;;;;;;;;4804019;29;20038;-55
